sensor_id;sensor_type;location;lat;lon;timestamp;P1;durP1;ratioP1;P2;durP2;ratioP2
26211;SDS011;13951;49.516;6.094;2023-07-08T00:02:07;10.73;;;3.78;;
26211;SDS011;13951;49.516;6.094;2023-07-08T00:04:42;6.63;;;3.75;;
26211;SDS011;13951;49.516;6.094;2023-07-08T00:07:16;6.75;;;3.85;;
26211;SDS011;13951;49.516;6.094;2023-07-08T00:09:53;7.32;;;3.58;;
26211;SDS011;13951;49.516;6.094;2023-07-08T00:12:30;6.50;;;3.30;;
26211;SDS011;13951;49.516;6.094;2023-07-08T00:15:03;5.57;;;3.40;;
26211;SDS011;13951;49.516;6.094;2023-07-08T00:17:37;5.03;;;3.80;;
26211;SDS011;13951;49.516;6.094;2023-07-08T00:20:18;5.55;;;3.65;;
26211;SDS011;13951;49.516;6.094;2023-07-08T00:22:54;6.82;;;3.42;;
26211;SDS011;13951;49.516;6.094;2023-07-08T00:25:27;5.47;;;3.45;;
26211;SDS011;13951;49.516;6.094;2023-07-08T00:28:01;6.07;;;3.65;;
26211;SDS011;13951;49.516;6.094;2023-07-08T00:30:34;5.82;;;3.55;;
26211;SDS011;13951;49.516;6.094;2023-07-08T00:33:07;6.25;;;3.80;;
26211;SDS011;13951;49.516;6.094;2023-07-08T00:35:41;5.07;;;3.60;;
26211;SDS011;13951;49.516;6.094;2023-07-08T00:38:23;5.28;;;3.45;;
26211;SDS011;13951;49.516;6.094;2023-07-08T00:41:04;5.93;;;3.53;;
26211;SDS011;13951;49.516;6.094;2023-07-08T00:43:39;5.90;;;3.72;;
26211;SDS011;13951;49.516;6.094;2023-07-08T00:52:19;6.60;;;3.88;;
26211;SDS011;13951;49.516;6.094;2023-07-08T00:54:56;6.20;;;3.55;;
26211;SDS011;13951;49.516;6.094;2023-07-08T00:57:37;7.68;;;4.00;;
26211;SDS011;13951;49.516;6.094;2023-07-08T01:00:14;5.30;;;3.70;;
26211;SDS011;13951;49.516;6.094;2023-07-08T01:02:52;6.03;;;3.55;;
26211;SDS011;13951;49.516;6.094;2023-07-08T01:05:28;5.13;;;3.85;;
26211;SDS011;13951;49.516;6.094;2023-07-08T01:08:03;6.78;;;4.32;;
26211;SDS011;13951;49.516;6.094;2023-07-08T01:10:47;7.75;;;3.92;;
26211;SDS011;13951;49.516;6.094;2023-07-08T01:13:24;5.55;;;3.75;;
26211;SDS011;13951;49.516;6.094;2023-07-08T01:15:59;6.82;;;3.97;;
26211;SDS011;13951;49.516;6.094;2023-07-08T01:18:32;7.00;;;3.50;;
26211;SDS011;13951;49.516;6.094;2023-07-08T01:21:27;6.72;;;3.95;;
26211;SDS011;13951;49.516;6.094;2023-07-08T01:24:03;7.35;;;4.25;;
26211;SDS011;13951;49.516;6.094;2023-07-08T01:26:41;5.40;;;3.85;;
26211;SDS011;13951;49.516;6.094;2023-07-08T01:29:16;7.28;;;3.88;;
26211;SDS011;13951;49.516;6.094;2023-07-08T01:31:51;7.28;;;4.25;;
26211;SDS011;13951;49.516;6.094;2023-07-08T01:34:32;7.15;;;4.38;;
26211;SDS011;13951;49.516;6.094;2023-07-08T01:37:06;4.97;;;3.42;;
26211;SDS011;13951;49.516;6.094;2023-07-08T01:39:43;5.40;;;3.72;;
26211;SDS011;13951;49.516;6.094;2023-07-08T01:42:16;8.70;;;4.13;;
26211;SDS011;13951;49.516;6.094;2023-07-08T01:44:49;6.65;;;3.60;;
26211;SDS011;13951;49.516;6.094;2023-07-08T01:47:23;9.23;;;3.90;;
26211;SDS011;13951;49.516;6.094;2023-07-08T01:49:56;6.68;;;3.58;;
26211;SDS011;13951;49.516;6.094;2023-07-08T01:52:30;6.97;;;3.55;;
26211;SDS011;13951;49.516;6.094;2023-07-08T01:55:03;6.45;;;4.07;;
26211;SDS011;13951;49.516;6.094;2023-07-08T01:57:37;5.85;;;4.07;;
26211;SDS011;13951;49.516;6.094;2023-07-08T02:00:10;5.47;;;3.13;;
26211;SDS011;13951;49.516;6.094;2023-07-08T02:02:48;6.88;;;3.53;;
26211;SDS011;13951;49.516;6.094;2023-07-08T02:05:23;7.45;;;4.07;;
26211;SDS011;13951;49.516;6.094;2023-07-08T02:07:56;4.82;;;3.63;;
26211;SDS011;13951;49.516;6.094;2023-07-08T02:10:30;8.23;;;3.55;;
26211;SDS011;13951;49.516;6.094;2023-07-08T02:13:05;5.53;;;3.65;;
26211;SDS011;13951;49.516;6.094;2023-07-08T02:15:38;4.80;;;3.50;;
26211;SDS011;13951;49.516;6.094;2023-07-08T02:18:11;7.05;;;3.33;;
26211;SDS011;13951;49.516;6.094;2023-07-08T02:20:45;6.05;;;3.60;;
26211;SDS011;13951;49.516;6.094;2023-07-08T02:23:18;6.18;;;3.97;;
26211;SDS011;13951;49.516;6.094;2023-07-08T02:25:52;5.22;;;3.33;;
26211;SDS011;13951;49.516;6.094;2023-07-08T02:28:25;5.53;;;3.60;;
26211;SDS011;13951;49.516;6.094;2023-07-08T02:31:02;5.93;;;3.47;;
26211;SDS011;13951;49.516;6.094;2023-07-08T02:33:36;4.72;;;3.53;;
26211;SDS011;13951;49.516;6.094;2023-07-08T02:36:09;6.28;;;3.58;;
26211;SDS011;13951;49.516;6.094;2023-07-08T02:38:42;9.80;;;4.28;;
26211;SDS011;13951;49.516;6.094;2023-07-08T02:41:15;5.75;;;3.75;;
26211;SDS011;13951;49.516;6.094;2023-07-08T02:43:48;5.95;;;3.75;;
26211;SDS011;13951;49.516;6.094;2023-07-08T02:46:21;5.93;;;3.70;;
26211;SDS011;13951;49.516;6.094;2023-07-08T02:48:54;6.03;;;3.90;;
26211;SDS011;13951;49.516;6.094;2023-07-08T02:51:28;5.93;;;4.00;;
26211;SDS011;13951;49.516;6.094;2023-07-08T02:54:01;6.45;;;3.67;;
26211;SDS011;13951;49.516;6.094;2023-07-08T02:56:34;7.75;;;3.88;;
26211;SDS011;13951;49.516;6.094;2023-07-08T02:59:07;6.35;;;3.97;;
26211;SDS011;13951;49.516;6.094;2023-07-08T03:01:40;5.20;;;3.38;;
26211;SDS011;13951;49.516;6.094;2023-07-08T03:04:14;6.50;;;4.30;;
26211;SDS011;13951;49.516;6.094;2023-07-08T03:06:49;6.18;;;4.07;;
26211;SDS011;13951;49.516;6.094;2023-07-08T03:09:23;6.78;;;3.67;;
26211;SDS011;13951;49.516;6.094;2023-07-08T03:11:57;6.63;;;3.90;;
26211;SDS011;13951;49.516;6.094;2023-07-08T03:14:30;6.25;;;3.95;;
26211;SDS011;13951;49.516;6.094;2023-07-08T03:17:03;5.25;;;3.40;;
26211;SDS011;13951;49.516;6.094;2023-07-08T03:19:37;6.18;;;4.35;;
26211;SDS011;13951;49.516;6.094;2023-07-08T03:22:10;9.02;;;4.30;;
26211;SDS011;13951;49.516;6.094;2023-07-08T03:24:45;5.25;;;3.90;;
26211;SDS011;13951;49.516;6.094;2023-07-08T03:27:22;5.45;;;3.70;;
26211;SDS011;13951;49.516;6.094;2023-07-08T03:29:56;7.10;;;4.30;;
26211;SDS011;13951;49.516;6.094;2023-07-08T03:32:29;7.25;;;3.78;;
26211;SDS011;13951;49.516;6.094;2023-07-08T03:35:02;5.72;;;3.67;;
26211;SDS011;13951;49.516;6.094;2023-07-08T03:37:36;6.22;;;4.40;;
26211;SDS011;13951;49.516;6.094;2023-07-08T03:40:09;6.10;;;3.85;;
26211;SDS011;13951;49.516;6.094;2023-07-08T03:42:43;8.90;;;4.50;;
26211;SDS011;13951;49.516;6.094;2023-07-08T03:45:17;5.97;;;3.70;;
26211;SDS011;13951;49.516;6.094;2023-07-08T03:47:50;9.45;;;3.90;;
26211;SDS011;13951;49.516;6.094;2023-07-08T03:50:24;5.32;;;3.63;;
26211;SDS011;13951;49.516;6.094;2023-07-08T03:52:58;6.32;;;3.95;;
26211;SDS011;13951;49.516;6.094;2023-07-08T03:55:34;8.43;;;3.97;;
26211;SDS011;13951;49.516;6.094;2023-07-08T03:58:08;5.57;;;3.45;;
26211;SDS011;13951;49.516;6.094;2023-07-08T04:00:42;6.40;;;3.65;;
26211;SDS011;13951;49.516;6.094;2023-07-08T04:03:15;6.70;;;4.05;;
26211;SDS011;13951;49.516;6.094;2023-07-08T04:05:48;6.90;;;3.97;;
26211;SDS011;13951;49.516;6.094;2023-07-08T04:08:22;7.32;;;6.63;;
26211;SDS011;13951;49.516;6.094;2023-07-08T04:10:55;6.60;;;4.30;;
26211;SDS011;13951;49.516;6.094;2023-07-08T04:13:29;6.47;;;3.42;;
26211;SDS011;13951;49.516;6.094;2023-07-08T04:16:02;5.32;;;3.38;;
26211;SDS011;13951;49.516;6.094;2023-07-08T04:18:37;5.35;;;3.80;;
26211;SDS011;13951;49.516;6.094;2023-07-08T04:21:10;5.07;;;3.38;;
26211;SDS011;13951;49.516;6.094;2023-07-08T04:23:46;4.90;;;3.30;;
26211;SDS011;13951;49.516;6.094;2023-07-08T04:26:21;6.57;;;3.88;;
26211;SDS011;13951;49.516;6.094;2023-07-08T04:28:54;6.85;;;3.95;;
26211;SDS011;13951;49.516;6.094;2023-07-08T04:31:27;5.85;;;3.67;;
26211;SDS011;13951;49.516;6.094;2023-07-08T04:34:00;6.95;;;3.97;;
26211;SDS011;13951;49.516;6.094;2023-07-08T04:36:33;6.97;;;3.78;;
26211;SDS011;13951;49.516;6.094;2023-07-08T04:39:07;8.20;;;4.05;;
26211;SDS011;13951;49.516;6.094;2023-07-08T04:41:41;7.25;;;3.78;;
26211;SDS011;13951;49.516;6.094;2023-07-08T04:44:17;7.57;;;4.28;;
26211;SDS011;13951;49.516;6.094;2023-07-08T04:46:57;4.95;;;3.47;;
26211;SDS011;13951;49.516;6.094;2023-07-08T04:49:30;5.35;;;3.67;;
26211;SDS011;13951;49.516;6.094;2023-07-08T04:52:06;5.32;;;3.60;;
26211;SDS011;13951;49.516;6.094;2023-07-08T04:54:39;8.57;;;4.22;;
26211;SDS011;13951;49.516;6.094;2023-07-08T04:57:12;7.85;;;3.80;;
26211;SDS011;13951;49.516;6.094;2023-07-08T04:59:45;6.45;;;3.78;;
26211;SDS011;13951;49.516;6.094;2023-07-08T05:02:18;7.30;;;4.05;;
26211;SDS011;13951;49.516;6.094;2023-07-08T05:04:52;6.40;;;4.18;;
26211;SDS011;13951;49.516;6.094;2023-07-08T05:07:25;5.13;;;3.55;;
26211;SDS011;13951;49.516;6.094;2023-07-08T05:09:58;5.82;;;3.90;;
26211;SDS011;13951;49.516;6.094;2023-07-08T05:12:31;5.75;;;4.00;;
26211;SDS011;13951;49.516;6.094;2023-07-08T05:15:04;5.97;;;3.72;;
26211;SDS011;13951;49.516;6.094;2023-07-08T05:17:39;4.80;;;3.60;;
26211;SDS011;13951;49.516;6.094;2023-07-08T05:20:13;7.22;;;4.05;;
26211;SDS011;13951;49.516;6.094;2023-07-08T05:22:47;6.05;;;3.83;;
26211;SDS011;13951;49.516;6.094;2023-07-08T05:25:20;5.32;;;3.90;;
26211;SDS011;13951;49.516;6.094;2023-07-08T05:27:53;5.90;;;3.88;;
26211;SDS011;13951;49.516;6.094;2023-07-08T05:30:26;6.15;;;3.90;;
26211;SDS011;13951;49.516;6.094;2023-07-08T05:35:40;6.53;;;3.83;;
26211;SDS011;13951;49.516;6.094;2023-07-08T05:38:13;8.20;;;4.47;;
26211;SDS011;13951;49.516;6.094;2023-07-08T05:40:49;7.28;;;3.80;;
26211;SDS011;13951;49.516;6.094;2023-07-08T05:43:24;8.68;;;5.18;;
26211;SDS011;13951;49.516;6.094;2023-07-08T05:45:59;6.30;;;4.07;;
26211;SDS011;13951;49.516;6.094;2023-07-08T05:48:44;6.28;;;4.47;;
26211;SDS011;13951;49.516;6.094;2023-07-08T05:51:17;6.43;;;4.30;;
26211;SDS011;13951;49.516;6.094;2023-07-08T05:53:50;8.70;;;4.72;;
26211;SDS011;13951;49.516;6.094;2023-07-08T05:56:23;6.53;;;3.97;;
26211;SDS011;13951;49.516;6.094;2023-07-08T05:58:56;6.38;;;4.38;;
26211;SDS011;13951;49.516;6.094;2023-07-08T06:01:29;5.80;;;3.75;;
26211;SDS011;13951;49.516;6.094;2023-07-08T06:04:03;6.40;;;4.30;;
26211;SDS011;13951;49.516;6.094;2023-07-08T06:06:37;7.13;;;4.18;;
26211;SDS011;13951;49.516;6.094;2023-07-08T06:09:10;8.23;;;4.22;;
26211;SDS011;13951;49.516;6.094;2023-07-08T06:11:43;8.57;;;4.32;;
26211;SDS011;13951;49.516;6.094;2023-07-08T06:14:16;7.55;;;4.57;;
26211;SDS011;13951;49.516;6.094;2023-07-08T06:16:50;7.30;;;4.45;;
26211;SDS011;13951;49.516;6.094;2023-07-08T06:19:23;8.18;;;4.20;;
26211;SDS011;13951;49.516;6.094;2023-07-08T06:21:56;9.30;;;4.75;;
26211;SDS011;13951;49.516;6.094;2023-07-08T06:24:45;8.23;;;4.50;;
26211;SDS011;13951;49.516;6.094;2023-07-08T06:27:19;8.05;;;4.40;;
26211;SDS011;13951;49.516;6.094;2023-07-08T06:29:53;7.03;;;4.75;;
26211;SDS011;13951;49.516;6.094;2023-07-08T06:32:26;9.43;;;4.85;;
26211;SDS011;13951;49.516;6.094;2023-07-08T06:34:59;7.90;;;5.07;;
26211;SDS011;13951;49.516;6.094;2023-07-08T06:37:32;8.27;;;4.80;;
26211;SDS011;13951;49.516;6.094;2023-07-08T06:40:05;6.88;;;4.50;;
26211;SDS011;13951;49.516;6.094;2023-07-08T06:42:39;8.38;;;4.70;;
26211;SDS011;13951;49.516;6.094;2023-07-08T06:45:25;7.43;;;4.55;;
26211;SDS011;13951;49.516;6.094;2023-07-08T06:47:58;8.95;;;4.78;;
26211;SDS011;13951;49.516;6.094;2023-07-08T06:50:32;8.85;;;4.50;;
26211;SDS011;13951;49.516;6.094;2023-07-08T06:53:05;8.00;;;4.32;;
26211;SDS011;13951;49.516;6.094;2023-07-08T06:55:39;9.32;;;4.40;;
26211;SDS011;13951;49.516;6.094;2023-07-08T06:58:12;7.05;;;4.60;;
26211;SDS011;13951;49.516;6.094;2023-07-08T07:00:45;6.75;;;4.50;;
26211;SDS011;13951;49.516;6.094;2023-07-08T07:03:18;6.75;;;4.28;;
26211;SDS011;13951;49.516;6.094;2023-07-08T07:05:52;7.10;;;4.80;;
26211;SDS011;13951;49.516;6.094;2023-07-08T07:08:25;7.68;;;4.68;;
26211;SDS011;13951;49.516;6.094;2023-07-08T07:10:58;9.65;;;5.07;;
26211;SDS011;13951;49.516;6.094;2023-07-08T07:13:32;8.93;;;4.53;;
26211;SDS011;13951;49.516;6.094;2023-07-08T07:16:06;9.05;;;5.38;;
26211;SDS011;13951;49.516;6.094;2023-07-08T07:18:39;7.53;;;5.10;;
26211;SDS011;13951;49.516;6.094;2023-07-08T07:21:13;7.90;;;4.32;;
26211;SDS011;13951;49.516;6.094;2023-07-08T07:23:46;7.32;;;4.45;;
26211;SDS011;13951;49.516;6.094;2023-07-08T07:26:19;9.80;;;4.55;;
26211;SDS011;13951;49.516;6.094;2023-07-08T07:28:55;5.80;;;4.43;;
26211;SDS011;13951;49.516;6.094;2023-07-08T07:31:28;8.27;;;5.00;;
26211;SDS011;13951;49.516;6.094;2023-07-08T07:34:02;9.55;;;4.82;;
26211;SDS011;13951;49.516;6.094;2023-07-08T07:36:38;8.10;;;5.18;;
26211;SDS011;13951;49.516;6.094;2023-07-08T07:39:12;7.22;;;4.85;;
26211;SDS011;13951;49.516;6.094;2023-07-08T07:41:45;7.95;;;4.72;;
26211;SDS011;13951;49.516;6.094;2023-07-08T07:44:18;10.07;;;5.43;;
26211;SDS011;13951;49.516;6.094;2023-07-08T07:46:52;7.57;;;4.93;;
26211;SDS011;13951;49.516;6.094;2023-07-08T07:49:27;8.38;;;5.00;;
26211;SDS011;13951;49.516;6.094;2023-07-08T07:52:00;8.93;;;5.35;;
26211;SDS011;13951;49.516;6.094;2023-07-08T07:54:33;9.13;;;5.15;;
26211;SDS011;13951;49.516;6.094;2023-07-08T07:57:06;8.43;;;5.18;;
26211;SDS011;13951;49.516;6.094;2023-07-08T07:59:39;10.38;;;4.80;;
26211;SDS011;13951;49.516;6.094;2023-07-08T08:02:16;6.22;;;4.68;;
26211;SDS011;13951;49.516;6.094;2023-07-08T08:04:50;11.27;;;4.78;;
26211;SDS011;13951;49.516;6.094;2023-07-08T08:07:23;10.52;;;5.80;;
26211;SDS011;13951;49.516;6.094;2023-07-08T08:09:56;8.75;;;4.88;;
26211;SDS011;13951;49.516;6.094;2023-07-08T08:12:29;6.70;;;4.45;;
26211;SDS011;13951;49.516;6.094;2023-07-08T08:15:16;9.20;;;4.88;;
26211;SDS011;13951;49.516;6.094;2023-07-08T08:17:49;8.25;;;4.38;;
26211;SDS011;13951;49.516;6.094;2023-07-08T08:20:25;7.15;;;4.45;;
26211;SDS011;13951;49.516;6.094;2023-07-08T08:22:58;7.13;;;4.47;;
26211;SDS011;13951;49.516;6.094;2023-07-08T08:25:31;7.18;;;4.38;;
26211;SDS011;13951;49.516;6.094;2023-07-08T08:28:04;6.70;;;4.43;;
26211;SDS011;13951;49.516;6.094;2023-07-08T08:30:37;5.93;;;4.30;;
26211;SDS011;13951;49.516;6.094;2023-07-08T08:33:11;6.03;;;4.30;;
26211;SDS011;13951;49.516;6.094;2023-07-08T08:35:44;8.23;;;4.80;;
26211;SDS011;13951;49.516;6.094;2023-07-08T08:38:17;7.68;;;4.60;;
26211;SDS011;13951;49.516;6.094;2023-07-08T08:40:50;8.55;;;4.20;;
26211;SDS011;13951;49.516;6.094;2023-07-08T08:43:28;7.40;;;4.22;;
26211;SDS011;13951;49.516;6.094;2023-07-08T08:46:12;7.28;;;4.40;;
26211;SDS011;13951;49.516;6.094;2023-07-08T08:49:17;9.48;;;4.85;;
26211;SDS011;13951;49.516;6.094;2023-07-08T08:51:54;7.00;;;4.85;;
26211;SDS011;13951;49.516;6.094;2023-07-08T08:54:29;8.25;;;4.38;;
26211;SDS011;13951;49.516;6.094;2023-07-08T08:59:42;6.85;;;4.20;;
26211;SDS011;13951;49.516;6.094;2023-07-08T09:02:31;6.15;;;4.50;;
26211;SDS011;13951;49.516;6.094;2023-07-08T09:05:10;6.65;;;3.80;;
26211;SDS011;13951;49.516;6.094;2023-07-08T09:07:46;6.57;;;4.38;;
26211;SDS011;13951;49.516;6.094;2023-07-08T09:10:44;8.48;;;4.15;;
26211;SDS011;13951;49.516;6.094;2023-07-08T09:13:28;5.50;;;3.70;;
26211;SDS011;13951;49.516;6.094;2023-07-08T09:16:14;6.90;;;4.18;;
26211;SDS011;13951;49.516;6.094;2023-07-08T09:18:56;5.60;;;3.40;;
26211;SDS011;13951;49.516;6.094;2023-07-08T09:24:42;4.50;;;3.08;;
26211;SDS011;13951;49.516;6.094;2023-07-08T09:27:18;4.60;;;2.97;;
26211;SDS011;13951;49.516;6.094;2023-07-08T09:29:52;4.13;;;3.17;;
26211;SDS011;13951;49.516;6.094;2023-07-08T09:32:26;4.38;;;2.85;;
26211;SDS011;13951;49.516;6.094;2023-07-08T09:35:04;3.97;;;2.67;;
26211;SDS011;13951;49.516;6.094;2023-07-08T09:37:39;4.82;;;2.70;;
26211;SDS011;13951;49.516;6.094;2023-07-08T09:40:19;5.78;;;3.00;;
26211;SDS011;13951;49.516;6.094;2023-07-08T09:43:02;4.53;;;3.28;;
26211;SDS011;13951;49.516;6.094;2023-07-08T09:45:48;4.35;;;2.90;;
26211;SDS011;13951;49.516;6.094;2023-07-08T09:48:27;4.07;;;2.53;;
26211;SDS011;13951;49.516;6.094;2023-07-08T09:51:02;3.28;;;2.70;;
26211;SDS011;13951;49.516;6.094;2023-07-08T09:53:36;4.55;;;2.47;;
26211;SDS011;13951;49.516;6.094;2023-07-08T09:56:10;4.38;;;2.50;;
26211;SDS011;13951;49.516;6.094;2023-07-08T09:58:43;3.72;;;2.80;;
26211;SDS011;13951;49.516;6.094;2023-07-08T10:01:23;4.75;;;3.10;;
26211;SDS011;13951;49.516;6.094;2023-07-08T10:06:40;5.30;;;2.53;;
26211;SDS011;13951;49.516;6.094;2023-07-08T10:09:20;6.00;;;2.60;;
26211;SDS011;13951;49.516;6.094;2023-07-08T10:12:02;3.97;;;2.67;;
26211;SDS011;13951;49.516;6.094;2023-07-08T10:17:28;4.70;;;2.47;;
26211;SDS011;13951;49.516;6.094;2023-07-08T10:20:04;4.80;;;2.67;;
26211;SDS011;13951;49.516;6.094;2023-07-08T10:23:05;5.18;;;2.75;;
26211;SDS011;13951;49.516;6.094;2023-07-08T10:34:36;6.68;;;2.95;;
26211;SDS011;13951;49.516;6.094;2023-07-08T10:42:47;5.55;;;2.58;;
26211;SDS011;13951;49.516;6.094;2023-07-08T10:45:26;3.85;;;2.55;;
26211;SDS011;13951;49.516;6.094;2023-07-08T10:53:46;4.95;;;2.35;;
26211;SDS011;13951;49.516;6.094;2023-07-08T10:56:26;5.38;;;2.78;;
26211;SDS011;13951;49.516;6.094;2023-07-08T11:07:15;5.85;;;2.55;;
26211;SDS011;13951;49.516;6.094;2023-07-08T11:09:53;5.43;;;3.05;;
26211;SDS011;13951;49.516;6.094;2023-07-08T11:12:42;6.32;;;2.78;;
26211;SDS011;13951;49.516;6.094;2023-07-08T11:17:57;4.75;;;3.17;;
26211;SDS011;13951;49.516;6.094;2023-07-08T11:23:22;6.35;;;3.45;;
26211;SDS011;13951;49.516;6.094;2023-07-08T11:26:03;4.60;;;2.70;;
26211;SDS011;13951;49.516;6.094;2023-07-08T11:28:37;5.80;;;2.75;;
26211;SDS011;13951;49.516;6.094;2023-07-08T11:31:11;3.60;;;2.58;;
26211;SDS011;13951;49.516;6.094;2023-07-08T11:33:45;3.88;;;2.72;;
26211;SDS011;13951;49.516;6.094;2023-07-08T11:36:19;5.20;;;3.00;;
26211;SDS011;13951;49.516;6.094;2023-07-08T11:38:55;4.88;;;3.17;;
26211;SDS011;13951;49.516;6.094;2023-07-08T11:41:30;3.42;;;2.80;;
26211;SDS011;13951;49.516;6.094;2023-07-08T11:44:04;5.45;;;2.90;;
26211;SDS011;13951;49.516;6.094;2023-07-08T11:46:38;4.72;;;2.72;;
26211;SDS011;13951;49.516;6.094;2023-07-08T11:49:26;4.30;;;2.60;;
26211;SDS011;13951;49.516;6.094;2023-07-08T11:51:59;5.60;;;2.67;;
26211;SDS011;13951;49.516;6.094;2023-07-08T11:54:35;5.25;;;2.85;;
26211;SDS011;13951;49.516;6.094;2023-07-08T11:57:15;3.78;;;2.60;;
26211;SDS011;13951;49.516;6.094;2023-07-08T11:59:55;3.53;;;2.67;;
26211;SDS011;13951;49.516;6.094;2023-07-08T12:05:38;3.50;;;2.42;;
26211;SDS011;13951;49.516;6.094;2023-07-08T12:08:13;6.43;;;2.58;;
26211;SDS011;13951;49.516;6.094;2023-07-08T12:10:48;4.90;;;2.72;;
26211;SDS011;13951;49.516;6.094;2023-07-08T12:13:23;3.53;;;2.45;;
26211;SDS011;13951;49.516;6.094;2023-07-08T12:15:58;16.92;;;11.32;;
26211;SDS011;13951;49.516;6.094;2023-07-08T12:18:33;5.70;;;3.83;;
26211;SDS011;13951;49.516;6.094;2023-07-08T12:21:08;4.05;;;2.75;;
26211;SDS011;13951;49.516;6.094;2023-07-08T12:23:45;3.90;;;2.72;;
26211;SDS011;13951;49.516;6.094;2023-07-08T12:26:18;3.53;;;2.28;;
26211;SDS011;13951;49.516;6.094;2023-07-08T12:28:52;5.00;;;2.70;;
26211;SDS011;13951;49.516;6.094;2023-07-08T12:31:25;5.28;;;3.15;;
26211;SDS011;13951;49.516;6.094;2023-07-08T12:33:59;3.95;;;2.60;;
26211;SDS011;13951;49.516;6.094;2023-07-08T12:36:32;4.25;;;2.65;;
26211;SDS011;13951;49.516;6.094;2023-07-08T12:39:08;4.28;;;2.83;;
26211;SDS011;13951;49.516;6.094;2023-07-08T12:41:44;3.72;;;2.50;;
26211;SDS011;13951;49.516;6.094;2023-07-08T12:44:21;5.38;;;2.75;;
26211;SDS011;13951;49.516;6.094;2023-07-08T12:46:55;5.70;;;2.88;;
26211;SDS011;13951;49.516;6.094;2023-07-08T12:49:28;6.93;;;3.03;;
26211;SDS011;13951;49.516;6.094;2023-07-08T12:52:02;4.05;;;2.63;;
26211;SDS011;13951;49.516;6.094;2023-07-08T12:54:35;3.42;;;2.90;;
26211;SDS011;13951;49.516;6.094;2023-07-08T12:57:08;5.80;;;2.60;;
26211;SDS011;13951;49.516;6.094;2023-07-08T12:59:42;3.55;;;2.70;;
26211;SDS011;13951;49.516;6.094;2023-07-08T13:02:20;3.10;;;2.55;;
26211;SDS011;13951;49.516;6.094;2023-07-08T13:04:55;3.33;;;2.72;;
26211;SDS011;13951;49.516;6.094;2023-07-08T13:07:36;4.78;;;2.72;;
26211;SDS011;13951;49.516;6.094;2023-07-08T13:10:18;5.47;;;2.70;;
26211;SDS011;13951;49.516;6.094;2023-07-08T13:12:54;5.57;;;2.70;;
26211;SDS011;13951;49.516;6.094;2023-07-08T13:15:33;4.20;;;2.50;;
26211;SDS011;13951;49.516;6.094;2023-07-08T13:18:15;3.35;;;2.47;;
26211;SDS011;13951;49.516;6.094;2023-07-08T13:20:50;4.80;;;2.83;;
26211;SDS011;13951;49.516;6.094;2023-07-08T13:23:24;4.47;;;3.20;;
26211;SDS011;13951;49.516;6.094;2023-07-08T13:25:58;3.90;;;2.60;;
26211;SDS011;13951;49.516;6.094;2023-07-08T13:28:38;3.78;;;2.70;;
26211;SDS011;13951;49.516;6.094;2023-07-08T13:31:16;3.90;;;2.50;;
26211;SDS011;13951;49.516;6.094;2023-07-08T13:33:55;3.80;;;2.40;;
26211;SDS011;13951;49.516;6.094;2023-07-08T13:36:33;5.43;;;3.25;;
26211;SDS011;13951;49.516;6.094;2023-07-08T13:39:13;4.20;;;2.60;;
26211;SDS011;13951;49.516;6.094;2023-07-08T13:41:48;4.68;;;3.00;;
26211;SDS011;13951;49.516;6.094;2023-07-08T13:44:21;3.25;;;2.42;;
26211;SDS011;13951;49.516;6.094;2023-07-08T13:46:56;5.35;;;3.47;;
26211;SDS011;13951;49.516;6.094;2023-07-08T13:49:32;3.85;;;2.85;;
26211;SDS011;13951;49.516;6.094;2023-07-08T13:54:53;5.32;;;3.17;;
26211;SDS011;13951;49.516;6.094;2023-07-08T13:57:32;5.43;;;2.90;;
26211;SDS011;13951;49.516;6.094;2023-07-08T14:00:06;4.60;;;3.05;;
26211;SDS011;13951;49.516;6.094;2023-07-08T14:02:43;4.28;;;3.03;;
26211;SDS011;13951;49.516;6.094;2023-07-08T14:05:18;4.35;;;2.72;;
26211;SDS011;13951;49.516;6.094;2023-07-08T14:07:53;4.10;;;2.88;;
26211;SDS011;13951;49.516;6.094;2023-07-08T14:10:27;5.72;;;2.90;;
26211;SDS011;13951;49.516;6.094;2023-07-08T14:13:00;4.28;;;2.70;;
26211;SDS011;13951;49.516;6.094;2023-07-08T14:15:33;3.38;;;2.47;;
26211;SDS011;13951;49.516;6.094;2023-07-08T14:18:07;4.85;;;3.20;;
26211;SDS011;13951;49.516;6.094;2023-07-08T14:20:41;3.45;;;2.63;;
26211;SDS011;13951;49.516;6.094;2023-07-08T14:23:15;2.75;;;2.35;;
26211;SDS011;13951;49.516;6.094;2023-07-08T14:25:50;5.05;;;2.47;;
26211;SDS011;13951;49.516;6.094;2023-07-08T14:28:23;4.78;;;2.95;;
26211;SDS011;13951;49.516;6.094;2023-07-08T14:30:57;5.68;;;2.88;;
26211;SDS011;13951;49.516;6.094;2023-07-08T14:33:33;4.18;;;3.00;;
26211;SDS011;13951;49.516;6.094;2023-07-08T14:36:09;3.72;;;2.80;;
26211;SDS011;13951;49.516;6.094;2023-07-08T14:38:43;4.47;;;2.70;;
26211;SDS011;13951;49.516;6.094;2023-07-08T14:41:17;4.22;;;2.60;;
26211;SDS011;13951;49.516;6.094;2023-07-08T14:43:51;3.95;;;2.47;;
26211;SDS011;13951;49.516;6.094;2023-07-08T14:46:24;4.35;;;2.60;;
26211;SDS011;13951;49.516;6.094;2023-07-08T14:48:57;3.47;;;2.53;;
26211;SDS011;13951;49.516;6.094;2023-07-08T14:51:31;4.28;;;2.70;;
26211;SDS011;13951;49.516;6.094;2023-07-08T14:54:04;4.18;;;2.63;;
26211;SDS011;13951;49.516;6.094;2023-07-08T14:56:38;4.63;;;2.70;;
26211;SDS011;13951;49.516;6.094;2023-07-08T14:59:13;4.13;;;2.45;;
26211;SDS011;13951;49.516;6.094;2023-07-08T15:01:48;5.20;;;2.55;;
26211;SDS011;13951;49.516;6.094;2023-07-08T15:04:22;2.72;;;2.47;;
26211;SDS011;13951;49.516;6.094;2023-07-08T15:06:57;4.43;;;2.95;;
26211;SDS011;13951;49.516;6.094;2023-07-08T15:09:31;5.28;;;3.20;;
26211;SDS011;13951;49.516;6.094;2023-07-08T15:12:07;4.57;;;2.60;;
26211;SDS011;13951;49.516;6.094;2023-07-08T15:14:42;4.90;;;2.90;;
26211;SDS011;13951;49.516;6.094;2023-07-08T15:17:15;3.30;;;2.60;;
26211;SDS011;13951;49.516;6.094;2023-07-08T15:19:50;3.22;;;2.63;;
26211;SDS011;13951;49.516;6.094;2023-07-08T15:22:23;3.67;;;2.78;;
26211;SDS011;13951;49.516;6.094;2023-07-08T15:24:56;4.55;;;2.50;;
26211;SDS011;13951;49.516;6.094;2023-07-08T15:27:30;4.55;;;2.83;;
26211;SDS011;13951;49.516;6.094;2023-07-08T15:30:04;4.03;;;2.70;;
26211;SDS011;13951;49.516;6.094;2023-07-08T15:32:37;7.85;;;5.07;;
26211;SDS011;13951;49.516;6.094;2023-07-08T15:35:13;6.93;;;5.45;;
26211;SDS011;13951;49.516;6.094;2023-07-08T15:37:47;7.07;;;3.67;;
26211;SDS011;13951;49.516;6.094;2023-07-08T15:40:21;3.63;;;3.08;;
26211;SDS011;13951;49.516;6.094;2023-07-08T15:42:55;4.45;;;3.08;;
26211;SDS011;13951;49.516;6.094;2023-07-08T15:45:30;3.75;;;2.47;;
26211;SDS011;13951;49.516;6.094;2023-07-08T15:48:10;3.72;;;2.70;;
26211;SDS011;13951;49.516;6.094;2023-07-08T15:50:44;4.15;;;2.78;;
26211;SDS011;13951;49.516;6.094;2023-07-08T15:53:18;3.97;;;2.60;;
26211;SDS011;13951;49.516;6.094;2023-07-08T15:55:51;4.47;;;2.58;;
26211;SDS011;13951;49.516;6.094;2023-07-08T15:58:29;3.65;;;2.42;;
26211;SDS011;13951;49.516;6.094;2023-07-08T16:01:07;8.30;;;4.63;;
26211;SDS011;13951;49.516;6.094;2023-07-08T16:03:43;4.05;;;2.60;;
26211;SDS011;13951;49.516;6.094;2023-07-08T16:06:17;4.45;;;3.40;;
26211;SDS011;13951;49.516;6.094;2023-07-08T16:08:52;5.78;;;3.70;;
26211;SDS011;13951;49.516;6.094;2023-07-08T16:11:28;5.63;;;2.95;;
26211;SDS011;13951;49.516;6.094;2023-07-08T16:14:02;3.63;;;2.28;;
26211;SDS011;13951;49.516;6.094;2023-07-08T16:16:35;3.78;;;2.65;;
26211;SDS011;13951;49.516;6.094;2023-07-08T16:19:09;5.72;;;3.10;;
26211;SDS011;13951;49.516;6.094;2023-07-08T16:21:43;4.53;;;3.13;;
26211;SDS011;13951;49.516;6.094;2023-07-08T16:24:17;3.47;;;2.47;;
26211;SDS011;13951;49.516;6.094;2023-07-08T16:26:50;5.15;;;2.85;;
26211;SDS011;13951;49.516;6.094;2023-07-08T16:29:23;5.28;;;2.70;;
26211;SDS011;13951;49.516;6.094;2023-07-08T16:31:58;5.18;;;2.75;;
26211;SDS011;13951;49.516;6.094;2023-07-08T16:34:31;8.25;;;4.60;;
26211;SDS011;13951;49.516;6.094;2023-07-08T16:37:05;6.60;;;4.88;;